sensor_id;sensor_type;location;lat;lon;timestamp;pressure;altitude;pressure_sealevel;temperature;humidity
47670;BME280;33408;52.062;11.722;2023-07-16T00:01:46;100499.69;;;21.64;100.00
47670;BME280;33408;52.062;11.722;2023-07-16T00:04:12;100511.28;;;21.48;100.00
47670;BME280;33408;52.062;11.722;2023-07-16T00:06:39;100514.19;;;21.44;100.00
47670;BME280;33408;52.062;11.722;2023-07-16T00:09:05;100508.75;;;21.60;100.00
47670;BME280;33408;52.062;11.722;2023-07-16T00:11:33;100522.34;;;21.54;100.00
47670;BME280;33408;52.062;11.722;2023-07-16T00:14:00;100547.53;;;21.45;100.00
47670;BME280;33408;52.062;11.722;2023-07-16T00:16:27;100554.56;;;21.44;100.00
47670;BME280;33408;52.062;11.722;2023-07-16T00:18:53;100574.81;;;21.31;100.00
47670;BME280;33408;52.062;11.722;2023-07-16T00:21:20;100563.56;;;21.42;100.00
47670;BME280;33408;52.062;11.722;2023-07-16T00:23:46;100582.84;;;21.42;100.00
47670;BME280;33408;52.062;11.722;2023-07-16T00:26:13;100592.13;;;21.35;100.00
47670;BME280;33408;52.062;11.722;2023-07-16T00:28:41;100596.88;;;21.30;100.00
47670;BME280;33408;52.062;11.722;2023-07-16T00:31:09;100602.72;;;21.21;100.00
47670;BME280;33408;52.062;11.722;2023-07-16T00:33:36;100613.88;;;21.11;100.00
47670;BME280;33408;52.062;11.722;2023-07-16T00:36:03;100622.91;;;21.07;100.00
47670;BME280;33408;52.062;11.722;2023-07-16T00:38:29;100621.81;;;20.97;100.00
47670;BME280;33408;52.062;11.722;2023-07-16T00:40:56;100636.25;;;20.91;100.00
47670;BME280;33408;52.062;11.722;2023-07-16T00:43:23;100645.72;;;20.94;100.00
47670;BME280;33408;52.062;11.722;2023-07-16T00:45:51;100639.63;;;20.93;100.00
47670;BME280;33408;52.062;11.722;2023-07-16T00:48:18;100636.69;;;20.98;100.00
47670;BME280;33408;52.062;11.722;2023-07-16T00:50:46;100654.28;;;20.98;100.00
47670;BME280;33408;52.062;11.722;2023-07-16T00:53:12;100659.63;;;20.96;100.00
47670;BME280;33408;52.062;11.722;2023-07-16T00:55:39;100661.72;;;20.91;100.00
47670;BME280;33408;52.062;11.722;2023-07-16T00:58:07;100666.22;;;21.03;100.00
47670;BME280;33408;52.062;11.722;2023-07-16T01:00:34;100671.88;;;20.97;100.00
47670;BME280;33408;52.062;11.722;2023-07-16T01:03:03;100665.59;;;21.00;100.00
47670;BME280;33408;52.062;11.722;2023-07-16T01:05:34;100662.56;;;21.06;100.00
47670;BME280;33408;52.062;11.722;2023-07-16T01:08:06;100662.25;;;21.10;100.00
47670;BME280;33408;52.062;11.722;2023-07-16T01:10:33;100643.59;;;21.13;100.00
47670;BME280;33408;52.062;11.722;2023-07-16T01:13:00;100629.97;;;21.07;100.00
47670;BME280;33408;52.062;11.722;2023-07-16T01:15:27;100621.06;;;20.95;100.00
47670;BME280;33408;52.062;11.722;2023-07-16T01:17:53;100612.03;;;20.85;100.00
47670;BME280;33408;52.062;11.722;2023-07-16T01:20:21;100616.16;;;21.03;100.00
47670;BME280;33408;52.062;11.722;2023-07-16T01:23:14;100623.13;;;21.04;100.00
47670;BME280;33408;52.062;11.722;2023-07-16T01:26:17;100613.72;;;21.00;100.00
47670;BME280;33408;52.062;11.722;2023-07-16T01:29:10;100631.19;;;21.16;100.00
47670;BME280;33408;52.062;11.722;2023-07-16T01:31:40;100621.06;;;20.95;100.00
47670;BME280;33408;52.062;11.722;2023-07-16T01:34:08;100621.53;;;21.29;100.00
47670;BME280;33408;52.062;11.722;2023-07-16T01:36:37;100609.09;;;21.04;100.00
47670;BME280;33408;52.062;11.722;2023-07-16T01:39:05;100602.53;;;20.97;100.00
47670;BME280;33408;52.062;11.722;2023-07-16T01:41:32;100608.09;;;20.92;100.00
47670;BME280;33408;52.062;11.722;2023-07-16T01:43:58;100598.97;;;20.83;100.00
47670;BME280;33408;52.062;11.722;2023-07-16T01:46:26;100592.59;;;20.73;100.00
47670;BME280;33408;52.062;11.722;2023-07-16T01:48:54;100556.41;;;20.48;100.00
47670;BME280;33408;52.062;11.722;2023-07-16T01:51:21;100556.19;;;20.51;100.00
47670;BME280;33408;52.062;11.722;2023-07-16T01:53:48;100613.72;;;21.00;100.00
47670;BME280;33408;52.062;11.722;2023-07-16T01:56:14;100590.59;;;20.91;100.00
47670;BME280;33408;52.062;11.722;2023-07-16T01:58:41;100603.38;;;20.97;100.00
47670;BME280;33408;52.062;11.722;2023-07-16T02:01:07;100604.16;;;21.12;100.00
47670;BME280;33408;52.062;11.722;2023-07-16T02:03:35;100596.97;;;21.01;100.00
47670;BME280;33408;52.062;11.722;2023-07-16T02:06:02;100552.94;;;20.47;100.00
47670;BME280;33408;52.062;11.722;2023-07-16T02:08:28;100564.66;;;20.70;100.00
47670;BME280;33408;52.062;11.722;2023-07-16T02:10:55;100565.91;;;20.65;100.00
47670;BME280;33408;52.062;11.722;2023-07-16T02:13:22;100566.44;;;20.55;100.00
47670;BME280;33408;52.062;11.722;2023-07-16T02:15:48;100562.06;;;20.56;100.00
47670;BME280;33408;52.062;11.722;2023-07-16T02:18:15;100567.97;;;20.59;100.00
47670;BME280;33408;52.062;11.722;2023-07-16T02:20:44;100577.63;;;20.59;100.00
47670;BME280;33408;52.062;11.722;2023-07-16T02:23:11;100579.16;;;20.49;100.00
47670;BME280;33408;52.062;11.722;2023-07-16T02:25:37;100540.22;;;20.39;100.00
47670;BME280;33408;52.062;11.722;2023-07-16T02:28:04;100533.88;;;20.29;100.00
47670;BME280;33408;52.062;11.722;2023-07-16T02:30:30;100538.94;;;20.32;100.00
47670;BME280;33408;52.062;11.722;2023-07-16T02:32:57;100545.88;;;20.33;100.00
47670;BME280;33408;52.062;11.722;2023-07-16T02:35:23;100546.84;;;20.32;100.00
47670;BME280;33408;52.062;11.722;2023-07-16T02:37:51;100571.00;;;20.39;100.00
47670;BME280;33408;52.062;11.722;2023-07-16T02:40:18;100571.44;;;20.46;100.00
47670;BME280;33408;52.062;11.722;2023-07-16T02:42:44;100576.06;;;20.56;100.00
47670;BME280;33408;52.062;11.722;2023-07-16T02:45:11;100587.13;;;20.62;100.00
47670;BME280;33408;52.062;11.722;2023-07-16T02:47:37;100597.50;;;20.79;100.00
47670;BME280;33408;52.062;11.722;2023-07-16T02:50:05;100598.63;;;20.75;100.00
47670;BME280;33408;52.062;11.722;2023-07-16T02:52:32;100591.41;;;20.64;100.00
47670;BME280;33408;52.062;11.722;2023-07-16T02:54:59;100612.97;;;20.98;100.00
47670;BME280;33408;52.062;11.722;2023-07-16T02:57:26;100615.97;;;21.06;100.00
47670;BME280;33408;52.062;11.722;2023-07-16T02:59:53;100609.41;;;20.85;100.00
47670;BME280;33408;52.062;11.722;2023-07-16T03:02:19;100625.03;;;20.45;100.00
47670;BME280;33408;52.062;11.722;2023-07-16T03:04:46;100618.28;;;20.26;100.00
47670;BME280;33408;52.062;11.722;2023-07-16T03:07:12;100609.66;;;20.24;100.00
47670;BME280;33408;52.062;11.722;2023-07-16T03:09:39;100607.84;;;20.39;100.00
47670;BME280;33408;52.062;11.722;2023-07-16T03:12:08;100614.72;;;20.56;100.00
47670;BME280;33408;52.062;11.722;2023-07-16T03:14:34;100587.16;;;20.33;100.00
47670;BME280;33408;52.062;11.722;2023-07-16T03:17:01;100586.59;;;20.28;100.00
47670;BME280;33408;52.062;11.722;2023-07-16T03:19:27;100605.22;;;20.39;100.00
47670;BME280;33408;52.062;11.722;2023-07-16T03:21:54;100589.69;;;20.20;100.00
47670;BME280;33408;52.062;11.722;2023-07-16T03:24:21;100594.22;;;20.32;100.00
47670;BME280;33408;52.062;11.722;2023-07-16T03:26:47;100590.34;;;20.23;100.00
47670;BME280;33408;52.062;11.722;2023-07-16T03:29:15;100610.94;;;20.31;100.00
47670;BME280;33408;52.062;11.722;2023-07-16T03:31:42;100622.44;;;20.30;100.00
47670;BME280;33408;52.062;11.722;2023-07-16T03:34:08;100633.53;;;20.35;100.00
47670;BME280;33408;52.062;11.722;2023-07-16T03:36:35;100640.28;;;20.39;100.00
47670;BME280;33408;52.062;11.722;2023-07-16T03:39:02;100640.09;;;20.43;100.00
47670;BME280;33408;52.062;11.722;2023-07-16T03:41:29;100629.75;;;20.39;100.00
47670;BME280;33408;52.062;11.722;2023-07-16T03:43:55;100616.31;;;20.30;100.00
47670;BME280;33408;52.062;11.722;2023-07-16T03:46:23;100620.81;;;20.28;100.00
47670;BME280;33408;52.062;11.722;2023-07-16T03:48:51;100610.28;;;20.28;100.00
47670;BME280;33408;52.062;11.722;2023-07-16T03:51:17;100619.63;;;20.19;100.00
47670;BME280;33408;52.062;11.722;2023-07-16T03:53:44;100624.56;;;20.23;100.00
47670;BME280;33408;52.062;11.722;2023-07-16T03:56:11;100629.09;;;20.36;100.00
47670;BME280;33408;52.062;11.722;2023-07-16T03:58:37;100635.97;;;20.38;100.00
47670;BME280;33408;52.062;11.722;2023-07-16T04:01:04;100627.88;;;20.42;100.00
47670;BME280;33408;52.062;11.722;2023-07-16T04:03:32;100633.16;;;20.42;100.00
47670;BME280;33408;52.062;11.722;2023-07-16T04:06:02;100627.13;;;20.39;100.00
47670;BME280;33408;52.062;11.722;2023-07-16T04:08:29;100649.50;;;20.47;100.00
47670;BME280;33408;52.062;11.722;2023-07-16T04:10:55;100668.78;;;20.47;100.00
47670;BME280;33408;52.062;11.722;2023-07-16T04:13:22;100661.72;;;20.48;100.00
47670;BME280;33408;52.062;11.722;2023-07-16T04:15:49;100664.34;;;20.48;100.00
47670;BME280;33408;52.062;11.722;2023-07-16T04:18:18;100676.97;;;20.57;100.00
47670;BME280;33408;52.062;11.722;2023-07-16T04:20:46;100681.81;;;20.65;100.00
47670;BME280;33408;52.062;11.722;2023-07-16T04:23:12;100684.81;;;20.73;100.00
47670;BME280;33408;52.062;11.722;2023-07-16T04:25:39;100681.97;;;20.90;100.00
47670;BME280;33408;52.062;11.722;2023-07-16T04:28:06;100678.16;;;21.09;100.00
47670;BME280;33408;52.062;11.722;2023-07-16T04:30:32;100689.03;;;21.04;100.00
47670;BME280;33408;52.062;11.722;2023-07-16T04:32:59;100684.66;;;21.18;100.00
47670;BME280;33408;52.062;11.722;2023-07-16T04:35:25;100684.94;;;21.55;100.00
47670;BME280;33408;52.062;11.722;2023-07-16T04:37:53;100680.81;;;21.36;100.00
47670;BME280;33408;52.062;11.722;2023-07-16T04:40:20;100688.00;;;21.34;100.00
47670;BME280;33408;52.062;11.722;2023-07-16T04:42:46;100691.31;;;21.23;100.00
47670;BME280;33408;52.062;11.722;2023-07-16T04:45:13;100690.59;;;21.07;100.00
47670;BME280;33408;52.062;11.722;2023-07-16T04:47:40;100687.03;;;21.08;100.00
47670;BME280;33408;52.062;11.722;2023-07-16T04:50:06;100687.78;;;20.95;100.00
47670;BME280;33408;52.062;11.722;2023-07-16T04:52:33;100693.91;;;20.96;100.00
47670;BME280;33408;52.062;11.722;2023-07-16T04:55:01;100695.97;;;21.74;100.00
47670;BME280;33408;52.062;11.722;2023-07-16T04:57:28;100684.41;;;23.29;100.00
47670;BME280;33408;52.062;11.722;2023-07-16T04:59:54;100691.63;;;24.11;100.00
47670;BME280;33408;52.062;11.722;2023-07-16T05:02:21;100691.13;;;24.75;100.00
47670;BME280;33408;52.062;11.722;2023-07-16T05:04:48;100695.78;;;25.06;100.00
47670;BME280;33408;52.062;11.722;2023-07-16T05:07:14;100700.28;;;24.94;100.00
47670;BME280;33408;52.062;11.722;2023-07-16T05:09:42;100703.34;;;25.44;100.00
47670;BME280;33408;52.062;11.722;2023-07-16T05:12:10;100700.97;;;25.62;100.00
47670;BME280;33408;52.062;11.722;2023-07-16T05:14:43;100704.31;;;25.21;100.00
47670;BME280;33408;52.062;11.722;2023-07-16T05:17:10;100708.41;;;25.47;100.00
47670;BME280;33408;52.062;11.722;2023-07-16T05:19:37;100708.31;;;25.70;100.00
47670;BME280;33408;52.062;11.722;2023-07-16T05:22:04;100712.66;;;26.25;100.00
47670;BME280;33408;52.062;11.722;2023-07-16T05:24:32;100717.38;;;25.01;100.00
47670;BME280;33408;52.062;11.722;2023-07-16T05:26:59;100720.91;;;25.57;100.00
47670;BME280;33408;52.062;11.722;2023-07-16T05:29:27;100734.28;;;26.20;100.00
47670;BME280;33408;52.062;11.722;2023-07-16T05:31:54;100734.19;;;24.44;100.00
47670;BME280;33408;52.062;11.722;2023-07-16T05:34:21;100737.63;;;25.69;100.00
47670;BME280;33408;52.062;11.722;2023-07-16T05:36:47;100741.97;;;24.81;100.00
47670;BME280;33408;52.062;11.722;2023-07-16T05:39:14;100738.69;;;24.54;100.00
47670;BME280;33408;52.062;11.722;2023-07-16T05:41:40;100746.03;;;23.80;100.00
47670;BME280;33408;52.062;11.722;2023-07-16T05:44:07;100753.13;;;23.18;100.00
47670;BME280;33408;52.062;11.722;2023-07-16T05:46:35;100762.25;;;22.88;100.00
47670;BME280;33408;52.062;11.722;2023-07-16T05:49:02;100766.16;;;22.70;100.00
47670;BME280;33408;52.062;11.722;2023-07-16T05:51:28;100776.19;;;22.52;100.00
47670;BME280;33408;52.062;11.722;2023-07-16T05:53:55;100786.56;;;22.68;100.00
47670;BME280;33408;52.062;11.722;2023-07-16T05:56:21;100777.28;;;22.75;100.00
47670;BME280;33408;52.062;11.722;2023-07-16T05:58:51;100786.03;;;22.88;100.00
47670;BME280;33408;52.062;11.722;2023-07-16T06:01:18;100797.34;;;22.90;100.00
47670;BME280;33408;52.062;11.722;2023-07-16T06:03:45;100792.34;;;23.24;100.00
47670;BME280;33408;52.062;11.722;2023-07-16T06:06:12;100794.28;;;22.97;100.00
47670;BME280;33408;52.062;11.722;2023-07-16T06:08:39;100791.84;;;22.81;100.00
47670;BME280;33408;52.062;11.722;2023-07-16T06:11:05;100804.84;;;22.97;100.00
47670;BME280;33408;52.062;11.722;2023-07-16T06:13:32;100805.78;;;22.57;100.00
47670;BME280;33408;52.062;11.722;2023-07-16T06:15:58;100806.44;;;22.86;100.00
47670;BME280;33408;52.062;11.722;2023-07-16T06:18:25;100800.50;;;22.70;100.00
47670;BME280;33408;52.062;11.722;2023-07-16T06:20:53;100810.53;;;23.03;100.00
47670;BME280;33408;52.062;11.722;2023-07-16T06:23:20;100809.72;;;23.03;100.00
47670;BME280;33408;52.062;11.722;2023-07-16T06:25:47;100818.06;;;22.97;100.00
47670;BME280;33408;52.062;11.722;2023-07-16T06:28:15;100824.28;;;22.83;100.00
47670;BME280;33408;52.062;11.722;2023-07-16T06:30:42;100828.31;;;22.63;100.00
47670;BME280;33408;52.062;11.722;2023-07-16T06:33:08;100821.09;;;23.42;100.00
47670;BME280;33408;52.062;11.722;2023-07-16T06:35:35;100830.56;;;23.83;100.00
47670;BME280;33408;52.062;11.722;2023-07-16T06:38:03;100826.59;;;23.76;100.00
47670;BME280;33408;52.062;11.722;2023-07-16T06:40:29;100832.28;;;23.58;100.00
47670;BME280;33408;52.062;11.722;2023-07-16T06:42:56;100843.22;;;23.41;100.00
47670;BME280;33408;52.062;11.722;2023-07-16T06:45:23;100840.16;;;22.83;100.00
47670;BME280;33408;52.062;11.722;2023-07-16T06:47:49;100851.16;;;23.28;100.00
47670;BME280;33408;52.062;11.722;2023-07-16T06:50:16;100838.28;;;23.23;100.00
47670;BME280;33408;52.062;11.722;2023-07-16T06:52:43;100844.84;;;23.18;100.00
47670;BME280;33408;52.062;11.722;2023-07-16T06:55:11;100848.84;;;22.98;100.00
47670;BME280;33408;52.062;11.722;2023-07-16T06:57:38;100837.19;;;22.87;100.00
47670;BME280;33408;52.062;11.722;2023-07-16T07:00:06;100851.78;;;22.67;100.00
47670;BME280;33408;52.062;11.722;2023-07-16T07:02:36;100851.59;;;22.83;100.00
47670;BME280;33408;52.062;11.722;2023-07-16T07:05:03;100857.31;;;23.03;100.00
47670;BME280;33408;52.062;11.722;2023-07-16T07:07:30;100867.56;;;22.94;100.00
47670;BME280;33408;52.062;11.722;2023-07-16T07:09:56;100864.94;;;23.07;100.00
47670;BME280;33408;52.062;11.722;2023-07-16T07:12:24;100850.19;;;23.55;100.00
47670;BME280;33408;52.062;11.722;2023-07-16T07:14:51;100862.94;;;23.87;100.00
47670;BME280;33408;52.062;11.722;2023-07-16T07:17:17;100850.38;;;23.52;100.00
47670;BME280;33408;52.062;11.722;2023-07-16T07:19:44;100860.78;;;23.03;100.00
47670;BME280;33408;52.062;11.722;2023-07-16T07:22:10;100861.94;;;22.86;100.00
47670;BME280;33408;52.062;11.722;2023-07-16T07:24:37;100853.06;;;23.00;100.00
47670;BME280;33408;52.062;11.722;2023-07-16T07:27:04;100862.63;;;23.28;100.00
47670;BME280;33408;52.062;11.722;2023-07-16T07:29:32;100866.75;;;23.70;100.00
47670;BME280;33408;52.062;11.722;2023-07-16T07:31:59;100866.53;;;23.85;100.00
47670;BME280;33408;52.062;11.722;2023-07-16T07:34:25;100864.50;;;23.76;100.00
47670;BME280;33408;52.062;11.722;2023-07-16T07:36:52;100866.19;;;23.40;100.00
47670;BME280;33408;52.062;11.722;2023-07-16T07:39:19;100870.66;;;24.14;100.00
47670;BME280;33408;52.062;11.722;2023-07-16T07:41:45;100861.00;;;24.37;100.00
47670;BME280;33408;52.062;11.722;2023-07-16T07:44:12;100860.44;;;24.80;100.00
47670;BME280;33408;52.062;11.722;2023-07-16T07:46:40;100866.63;;;25.15;100.00
47670;BME280;33408;52.062;11.722;2023-07-16T07:49:06;100864.72;;;25.17;100.00
47670;BME280;33408;52.062;11.722;2023-07-16T07:51:33;100870.97;;;25.16;100.00
47670;BME280;33408;52.062;11.722;2023-07-16T07:53:59;100861.44;;;25.13;100.00
47670;BME280;33408;52.062;11.722;2023-07-16T07:56:26;100853.00;;;24.97;100.00
47670;BME280;33408;52.062;11.722;2023-07-16T07:58:53;100857.66;;;24.82;100.00
47670;BME280;33408;52.062;11.722;2023-07-16T08:01:19;100859.56;;;24.33;100.00
47670;BME280;33408;52.062;11.722;2023-07-16T08:03:47;100865.47;;;24.61;100.00
47670;BME280;33408;52.062;11.722;2023-07-16T08:06:15;100862.47;;;24.65;100.00
47670;BME280;33408;52.062;11.722;2023-07-16T08:08:44;100858.56;;;25.39;99.46
47670;BME280;33408;52.062;11.722;2023-07-16T08:11:11;100854.47;;;25.69;99.15
47670;BME280;33408;52.062;11.722;2023-07-16T08:13:38;100863.81;;;25.84;96.41
47670;BME280;33408;52.062;11.722;2023-07-16T08:16:04;100873.13;;;24.99;96.56
47670;BME280;33408;52.062;11.722;2023-07-16T08:18:31;100865.78;;;25.14;93.99
47670;BME280;33408;52.062;11.722;2023-07-16T08:20:59;100866.13;;;24.98;85.01
47670;BME280;33408;52.062;11.722;2023-07-16T08:23:25;100854.56;;;24.99;79.37
47670;BME280;33408;52.062;11.722;2023-07-16T08:25:52;100868.56;;;25.24;78.66
47670;BME280;33408;52.062;11.722;2023-07-16T08:28:18;100864.00;;;25.48;74.72
47670;BME280;33408;52.062;11.722;2023-07-16T08:30:46;100864.78;;;25.94;73.34
47670;BME280;33408;52.062;11.722;2023-07-16T08:33:13;100869.13;;;25.84;72.51
47670;BME280;33408;52.062;11.722;2023-07-16T08:35:40;100861.19;;;25.73;73.22
47670;BME280;33408;52.062;11.722;2023-07-16T08:38:08;100869.28;;;25.26;72.95
47670;BME280;33408;52.062;11.722;2023-07-16T08:40:35;100873.28;;;25.54;67.08
47670;BME280;33408;52.062;11.722;2023-07-16T08:43:03;100878.97;;;26.16;66.64
47670;BME280;33408;52.062;11.722;2023-07-16T08:45:33;100881.69;;;24.91;67.14
47670;BME280;33408;52.062;11.722;2023-07-16T08:48:01;100876.16;;;25.96;65.64
47670;BME280;33408;52.062;11.722;2023-07-16T08:50:28;100876.22;;;25.95;63.48
47670;BME280;33408;52.062;11.722;2023-07-16T08:52:57;100885.63;;;26.75;64.60
47670;BME280;33408;52.062;11.722;2023-07-16T08:55:25;100873.06;;;26.45;61.52
47670;BME280;33408;52.062;11.722;2023-07-16T08:57:53;100871.47;;;25.55;62.20
47670;BME280;33408;52.062;11.722;2023-07-16T09:00:20;100871.78;;;25.84;59.40
47670;BME280;33408;52.062;11.722;2023-07-16T09:02:48;100873.69;;;25.93;59.09
47670;BME280;33408;52.062;11.722;2023-07-16T09:05:19;100877.44;;;26.13;57.29
47670;BME280;33408;52.062;11.722;2023-07-16T09:07:46;100873.69;;;25.93;57.93
47670;BME280;33408;52.062;11.722;2023-07-16T09:10:13;100875.94;;;25.54;57.27
47670;BME280;33408;52.062;11.722;2023-07-16T09:12:43;100878.34;;;25.80;56.06
47670;BME280;33408;52.062;11.722;2023-07-16T09:15:10;100885.66;;;26.10;54.23
47670;BME280;33408;52.062;11.722;2023-07-16T09:17:37;100892.25;;;26.48;53.18
47670;BME280;33408;52.062;11.722;2023-07-16T09:20:05;100883.09;;;26.73;52.45
47670;BME280;33408;52.062;11.722;2023-07-16T09:22:33;100877.72;;;25.99;51.69
47670;BME280;33408;52.062;11.722;2023-07-16T09:25:00;100886.41;;;25.78;53.91
47670;BME280;33408;52.062;11.722;2023-07-16T09:27:28;100888.16;;;25.34;54.61
47670;BME280;33408;52.062;11.722;2023-07-16T09:29:56;100881.00;;;25.69;55.33
47670;BME280;33408;52.062;11.722;2023-07-16T09:32:33;100888.94;;;26.35;53.47
47670;BME280;33408;52.062;11.722;2023-07-16T09:35:00;100892.00;;;26.19;52.12
47670;BME280;33408;52.062;11.722;2023-07-16T09:37:27;100893.56;;;26.65;51.69
47670;BME280;33408;52.062;11.722;2023-07-16T09:39:54;100891.84;;;26.64;51.00
47670;BME280;33408;52.062;11.722;2023-07-16T09:42:21;100897.16;;;26.64;50.36
47670;BME280;33408;52.062;11.722;2023-07-16T09:44:50;100895.28;;;27.18;49.49
47670;BME280;33408;52.062;11.722;2023-07-16T09:47:20;100887.75;;;27.02;48.47
47670;BME280;33408;52.062;11.722;2023-07-16T09:49:47;100901.81;;;27.14;50.13
47670;BME280;33408;52.062;11.722;2023-07-16T09:52:14;100891.25;;;26.28;49.22
47670;BME280;33408;52.062;11.722;2023-07-16T09:54:41;100879.28;;;25.79;50.12
47670;BME280;33408;52.062;11.722;2023-07-16T09:57:08;100896.78;;;26.36;50.09
47670;BME280;33408;52.062;11.722;2023-07-16T09:59:35;100886.06;;;26.59;48.53
47670;BME280;33408;52.062;11.722;2023-07-16T10:02:03;100887.72;;;26.39;47.94
47670;BME280;33408;52.062;11.722;2023-07-16T10:04:38;100895.75;;;26.81;49.18
47670;BME280;33408;52.062;11.722;2023-07-16T10:07:06;100898.63;;;26.57;49.30
47670;BME280;33408;52.062;11.722;2023-07-16T10:09:37;100899.53;;;26.46;49.46
47670;BME280;33408;52.062;11.722;2023-07-16T10:14:49;100903.75;;;26.81;48.69
47670;BME280;33408;52.062;11.722;2023-07-16T10:17:17;100904.88;;;26.88;48.05
47670;BME280;33408;52.062;11.722;2023-07-16T10:19:51;100904.66;;;26.59;47.84
47670;BME280;33408;52.062;11.722;2023-07-16T10:22:18;100904.22;;;26.54;47.71
47670;BME280;33408;52.062;11.722;2023-07-16T10:24:51;100901.88;;;26.61;48.13
47670;BME280;33408;52.062;11.722;2023-07-16T10:27:27;100907.66;;;27.29;48.07
47670;BME280;33408;52.062;11.722;2023-07-16T10:29:53;100898.97;;;27.68;46.78
47670;BME280;33408;52.062;11.722;2023-07-16T10:32:21;100901.00;;;27.85;46.70
47670;BME280;33408;52.062;11.722;2023-07-16T10:34:47;100901.63;;;27.68;47.15
47670;BME280;33408;52.062;11.722;2023-07-16T10:37:15;100896.28;;;27.58;44.01
47670;BME280;33408;52.062;11.722;2023-07-16T10:39:46;100909.13;;;27.43;46.21
47670;BME280;33408;52.062;11.722;2023-07-16T10:42:13;100908.22;;;27.02;46.35
47670;BME280;33408;52.062;11.722;2023-07-16T10:44:40;100910.59;;;27.26;47.40
47670;BME280;33408;52.062;11.722;2023-07-16T10:47:06;100898.25;;;27.56;45.51
47670;BME280;33408;52.062;11.722;2023-07-16T10:49:34;100903.56;;;27.96;44.88
47670;BME280;33408;52.062;11.722;2023-07-16T10:52:01;100908.03;;;26.93;45.83
47670;BME280;33408;52.062;11.722;2023-07-16T10:54:29;100907.28;;;26.91;46.76
47670;BME280;33408;52.062;11.722;2023-07-16T10:56:56;100907.25;;;27.55;45.16
47670;BME280;33408;52.062;11.722;2023-07-16T10:59:22;100904.44;;;28.16;45.44
47670;BME280;33408;52.062;11.722;2023-07-16T11:01:49;100908.22;;;28.14;44.59
47670;BME280;33408;52.062;11.722;2023-07-16T11:04:16;100911.03;;;28.22;43.71
47670;BME280;33408;52.062;11.722;2023-07-16T11:06:43;100902.63;;;28.17;43.38
47670;BME280;33408;52.062;11.722;2023-07-16T11:09:10;100905.28;;;28.56;43.07
47670;BME280;33408;52.062;11.722;2023-07-16T11:11:38;100902.63;;;28.27;42.58
47670;BME280;33408;52.062;11.722;2023-07-16T11:14:05;100901.94;;;28.44;41.41
47670;BME280;33408;52.062;11.722;2023-07-16T11:16:36;100906.00;;;28.78;43.81
47670;BME280;33408;52.062;11.722;2023-07-16T11:19:04;100903.75;;;28.83;41.87
47670;BME280;33408;52.062;11.722;2023-07-16T11:21:32;100898.13;;;28.17;41.81
47670;BME280;33408;52.062;11.722;2023-07-16T11:24:07;100899.81;;;28.18;43.65
47670;BME280;33408;52.062;11.722;2023-07-16T11:26:34;100897.84;;;28.30;42.34
47670;BME280;33408;52.062;11.722;2023-07-16T11:29:12;100899.38;;;28.04;42.63
47670;BME280;33408;52.062;11.722;2023-07-16T11:31:39;100894.50;;;28.58;42.04
47670;BME280;33408;52.062;11.722;2023-07-16T11:34:06;100898.28;;;28.16;41.06
47670;BME280;33408;52.062;11.722;2023-07-16T11:36:33;100892.81;;;28.66;41.92
47670;BME280;33408;52.062;11.722;2023-07-16T11:39:02;100897.88;;;28.69;41.23
47670;BME280;33408;52.062;11.722;2023-07-16T11:41:29;100900.97;;;28.65;41.43
47670;BME280;33408;52.062;11.722;2023-07-16T11:43:59;100899.88;;;27.88;41.83
47670;BME280;33408;52.062;11.722;2023-07-16T11:46:31;100895.03;;;28.02;41.64
47670;BME280;33408;52.062;11.722;2023-07-16T11:49:01;100894.75;;;28.45;41.52
47670;BME280;33408;52.062;11.722;2023-07-16T11:51:29;100888.88;;;28.02;41.64
47670;BME280;33408;52.062;11.722;2023-07-16T11:53:56;100885.25;;;28.62;41.28
47670;BME280;33408;52.062;11.722;2023-07-16T11:56:23;100886.03;;;28.91;40.85
47670;BME280;33408;52.062;11.722;2023-07-16T11:58:49;100887.47;;;28.56;40.58
47670;BME280;33408;52.062;11.722;2023-07-16T12:01:16;100888.75;;;28.62;40.28
47670;BME280;33408;52.062;11.722;2023-07-16T12:03:44;100891.41;;;28.72;40.41
47670;BME280;33408;52.062;11.722;2023-07-16T12:06:10;100877.53;;;28.29;39.50
47670;BME280;33408;52.062;11.722;2023-07-16T12:08:37;100893.50;;;28.78;40.46
47670;BME280;33408;52.062;11.722;2023-07-16T12:11:03;100885.91;;;28.83;38.89
47670;BME280;33408;52.062;11.722;2023-07-16T12:13:30;100881.72;;;28.42;38.93
47670;BME280;33408;52.062;11.722;2023-07-16T12:15:57;100889.44;;;28.84;39.38
47670;BME280;33408;52.062;11.722;2023-07-16T12:18:23;100888.31;;;28.77;39.01
47670;BME280;33408;52.062;11.722;2023-07-16T12:20:51;100881.56;;;28.82;38.56
47670;BME280;33408;52.062;11.722;2023-07-16T12:23:18;100892.53;;;28.69;37.89
47670;BME280;33408;52.062;11.722;2023-07-16T12:25:44;100894.63;;;28.56;37.87
47670;BME280;33408;52.062;11.722;2023-07-16T12:28:11;100884.44;;;29.08;38.25
47670;BME280;33408;52.062;11.722;2023-07-16T12:30:38;100894.97;;;29.20;38.36
47670;BME280;33408;52.062;11.722;2023-07-16T12:33:04;100895.47;;;29.33;38.51
47670;BME280;33408;52.062;11.722;2023-07-16T12:35:31;100897.22;;;29.24;37.70
47670;BME280;33408;52.062;11.722;2023-07-16T12:37:59;100881.47;;;29.12;38.04